createdAt,value
2023-02-18T00:01:10.418Z,11.06
2023-02-18T00:03:36.956Z,11.05
2023-02-18T00:06:11.254Z,11.01
2023-02-18T00:08:38.352Z,11.00
2023-02-18T00:11:05.282Z,11.00
2023-02-18T00:13:31.793Z,10.99
2023-02-18T00:16:01.005Z,11.01
2023-02-18T00:18:27.412Z,11.02
2023-02-18T00:20:53.928Z,10.97
2023-02-18T00:23:20.308Z,10.91
2023-02-18T00:25:47.377Z,10.88
2023-02-18T00:28:13.813Z,10.84
2023-02-18T00:30:40.755Z,10.84
2023-02-18T00:33:07.208Z,10.76
2023-02-18T00:35:33.622Z,10.70
2023-02-18T00:38:00.036Z,10.78
2023-02-18T00:40:26.443Z,10.70
2023-02-18T00:42:53.524Z,10.76
2023-02-18T00:45:19.869Z,10.73
2023-02-18T00:47:47.060Z,10.71
2023-02-18T00:50:13.434Z,10.65
2023-02-18T00:52:39.810Z,10.61
2023-02-18T00:55:07.515Z,10.68
2023-02-18T00:57:33.904Z,10.67
2023-02-18T01:00:00.985Z,10.64
2023-02-18T01:02:27.366Z,10.71
2023-02-18T01:04:53.911Z,10.72
2023-02-18T01:07:20.415Z,10.73
2023-02-18T01:09:46.849Z,10.79
2023-02-18T01:12:13.600Z,10.74
2023-02-18T01:14:42.785Z,10.77
2023-02-18T01:17:10.067Z,10.76
2023-02-18T01:19:36.484Z,10.74
2023-02-18T01:22:03.004Z,10.71
2023-02-18T01:24:29.426Z,10.64
2023-02-18T01:26:55.882Z,10.63
2023-02-18T01:29:22.289Z,10.61
2023-02-18T01:31:48.816Z,10.62
2023-02-18T01:34:15.953Z,10.56
2023-02-18T01:36:42.369Z,10.63
2023-02-18T01:39:08.746Z,10.44
2023-02-18T01:41:35.166Z,10.45
2023-02-18T01:44:12.809Z,10.43
2023-02-18T01:46:39.443Z,10.46
2023-02-18T01:49:07.048Z,10.57
2023-02-18T01:51:38.627Z,10.54
2023-02-18T01:54:09.508Z,10.58
2023-02-18T01:56:39.248Z,10.63
2023-02-18T01:59:09.476Z,10.67
2023-02-18T02:01:35.986Z,10.67
2023-02-18T02:04:04.872Z,10.65
2023-02-18T02:06:31.680Z,10.66
2023-02-18T02:09:01.978Z,10.71
2023-02-18T02:11:49.073Z,10.69
2023-02-18T02:14:31.015Z,10.76
2023-02-18T02:17:06.623Z,10.74
2023-02-18T02:20:09.702Z,10.72
2023-02-18T02:23:04.616Z,10.74
2023-02-18T02:25:55.721Z,10.77
2023-02-18T02:28:52.942Z,10.84
2023-02-18T02:31:47.226Z,10.84
2023-02-18T02:34:35.017Z,10.82
2023-02-18T02:37:08.846Z,10.81
2023-02-18T02:39:43.160Z,10.78
2023-02-18T02:42:19.323Z,10.85
2023-02-18T02:44:54.427Z,10.81
2023-02-18T02:47:32.523Z,10.85
2023-02-18T02:50:03.557Z,10.72
2023-02-18T02:52:33.512Z,10.83
2023-02-18T02:55:00.100Z,10.77
2023-02-18T02:57:45.621Z,10.77
2023-02-18T03:00:19.449Z,10.74
2023-02-18T03:03:22.766Z,10.74
2023-02-18T03:06:10.741Z,10.80
2023-02-18T03:08:45.058Z,10.71
2023-02-18T03:11:14.163Z,10.73
2023-02-18T03:13:53.210Z,10.66
2023-02-18T03:16:27.454Z,10.63
2023-02-18T03:19:01.766Z,10.63
2023-02-18T03:21:33.013Z,10.76
2023-02-18T03:24:06.637Z,10.82
2023-02-18T03:26:37.566Z,10.76
2023-02-18T03:29:07.342Z,10.80
2023-02-18T03:31:36.630Z,10.81
2023-02-18T03:34:06.997Z,10.80
2023-02-18T03:36:35.298Z,10.83
2023-02-18T03:39:07.158Z,10.84
2023-02-18T03:41:34.046Z,10.85
2023-02-18T03:44:03.386Z,10.85
2023-02-18T03:46:31.349Z,10.84
2023-02-18T03:48:58.483Z,10.69
2023-02-18T03:51:24.883Z,10.70
2023-02-18T03:53:51.916Z,10.69
2023-02-18T03:56:20.937Z,10.79
2023-02-18T03:58:47.341Z,10.73
2023-02-18T04:01:14.220Z,10.63
2023-02-18T04:03:40.680Z,10.69
2023-02-18T04:06:07.999Z,10.68
2023-02-18T04:08:34.672Z,10.64
2023-02-18T04:11:01.747Z,10.65
2023-02-18T04:13:28.221Z,10.63
2023-02-18T04:15:54.628Z,10.62
2023-02-18T04:18:21.390Z,10.61
2023-02-18T04:20:47.825Z,10.62
2023-02-18T04:23:14.457Z,10.60
2023-02-18T04:25:40.866Z,10.58
2023-02-18T04:28:10.515Z,10.56
2023-02-18T04:30:36.975Z,10.56
2023-02-18T04:33:03.544Z,10.55
2023-02-18T04:35:30.190Z,10.50
2023-02-18T04:37:56.568Z,10.54
2023-02-18T04:40:24.645Z,10.50
2023-02-18T04:42:51.012Z,10.53
2023-02-18T04:45:18.291Z,10.48
2023-02-18T04:47:44.726Z,10.49
2023-02-18T04:50:11.347Z,10.50
2023-02-18T04:52:37.741Z,10.48
2023-02-18T04:55:04.641Z,10.46
2023-02-18T04:57:31.128Z,10.48
2023-02-18T04:59:57.480Z,10.49
2023-02-18T05:02:24.677Z,10.48
2023-02-18T05:04:51.155Z,10.55
2023-02-18T05:07:17.585Z,10.56
2023-02-18T05:09:44.167Z,10.55
2023-02-18T05:12:10.567Z,10.59
2023-02-18T05:14:36.943Z,10.57
2023-02-18T05:17:03.393Z,10.57
2023-02-18T05:19:30.455Z,10.54
2023-02-18T05:21:57.040Z,10.52
2023-02-18T05:24:23.448Z,10.57
2023-02-18T05:26:49.790Z,10.55
2023-02-18T05:29:16.258Z,10.59
2023-02-18T05:31:42.772Z,10.55
2023-02-18T05:34:09.379Z,10.62
2023-02-18T05:36:36.381Z,10.60
2023-02-18T05:39:02.871Z,10.61
2023-02-18T05:41:29.283Z,10.67
2023-02-18T05:44:13.907Z,10.60
2023-02-18T05:46:40.449Z,10.67
2023-02-18T05:49:06.901Z,10.63
2023-02-18T05:51:33.383Z,10.66
2023-02-18T05:54:00.563Z,10.64
2023-02-18T05:56:26.955Z,10.70
2023-02-18T05:58:53.370Z,10.64
2023-02-18T06:01:19.743Z,10.66
2023-02-18T06:03:46.104Z,10.72
2023-02-18T06:06:12.630Z,10.68
2023-02-18T06:08:39.068Z,10.72
2023-02-18T06:11:06.116Z,10.65
2023-02-18T06:13:32.474Z,10.65
2023-02-18T06:15:59.246Z,10.65
2023-02-18T06:18:25.680Z,10.68
2023-02-18T06:20:52.124Z,10.64
2023-02-18T06:23:18.570Z,10.52
2023-02-18T06:25:44.966Z,10.70
2023-02-18T06:28:12.025Z,10.67
2023-02-18T06:30:38.604Z,10.67
2023-02-18T06:33:05.086Z,10.63
2023-02-18T06:35:31.658Z,10.70
2023-02-18T06:37:58.068Z,10.67
2023-02-18T06:40:24.696Z,10.69
2023-02-18T06:42:51.090Z,10.67
2023-02-18T06:45:18.296Z,11.11
2023-02-18T06:47:44.741Z,11.09
2023-02-18T06:50:11.170Z,11.12
2023-02-18T06:52:37.604Z,11.16
2023-02-18T06:55:04.676Z,11.16
2023-02-18T06:57:31.176Z,11.15
2023-02-18T06:59:57.610Z,11.12
2023-02-18T07:02:24.640Z,11.17
2023-02-18T07:04:51.075Z,10.98
2023-02-18T07:07:17.517Z,10.90
2023-02-18T07:09:43.872Z,10.86
2023-02-18T07:12:10.305Z,10.80
2023-02-18T07:14:36.729Z,10.82
2023-02-18T07:17:03.254Z,10.79
2023-02-18T07:19:30.395Z,10.78
2023-02-18T07:21:56.982Z,10.71
2023-02-18T07:24:23.676Z,10.72
2023-02-18T07:26:50.053Z,10.69
2023-02-18T07:29:18.686Z,10.70
2023-02-18T07:31:45.218Z,10.67
2023-02-18T07:34:11.660Z,10.66
2023-02-18T07:36:38.888Z,10.61
2023-02-18T07:39:05.296Z,10.55
2023-02-18T07:41:31.778Z,10.59
2023-02-18T07:43:58.528Z,10.61
2023-02-18T07:46:27.940Z,10.62
2023-02-18T07:48:54.350Z,10.65
2023-02-18T07:51:20.746Z,10.63
2023-02-18T07:53:47.792Z,10.71
2023-02-18T07:56:14.367Z,10.69
2023-02-18T07:58:40.925Z,10.74
2023-02-18T08:01:09.238Z,10.76
2023-02-18T08:03:35.731Z,10.78
2023-02-18T08:06:04.512Z,10.76
2023-02-18T08:08:32.112Z,10.78
2023-02-18T08:11:07.158Z,10.80
2023-02-18T08:13:39.965Z,10.86
2023-02-18T08:16:06.828Z,10.85
2023-02-18T08:18:33.384Z,10.87
2023-02-18T08:20:59.801Z,11.01
2023-02-18T08:23:26.206Z,10.96
2023-02-18T08:25:53.684Z,11.05
2023-02-18T08:28:22.688Z,11.11
2023-02-18T08:30:50.865Z,11.12
2023-02-18T08:33:18.067Z,11.15
2023-02-18T08:35:45.535Z,11.20
2023-02-18T08:38:12.007Z,11.22
2023-02-18T08:40:40.144Z,11.23
2023-02-18T08:43:06.771Z,11.22
2023-02-18T08:45:35.799Z,11.24
2023-02-18T08:48:19.459Z,11.34
2023-02-18T08:50:46.706Z,11.44
2023-02-18T08:53:13.151Z,11.36
2023-02-18T08:55:40.828Z,11.37
2023-02-18T08:58:07.501Z,11.26
2023-02-18T09:00:35.065Z,11.35
2023-02-18T09:03:01.797Z,11.32
2023-02-18T09:05:28.176Z,11.29
2023-02-18T09:07:54.629Z,11.26
2023-02-18T09:10:21.313Z,11.34
2023-02-18T09:12:47.750Z,11.32
2023-02-18T09:15:14.331Z,11.32
2023-02-18T09:17:41.384Z,11.52
2023-02-18T09:20:09.100Z,11.64
2023-02-18T09:22:35.567Z,11.52
2023-02-18T09:25:03.140Z,11.71
2023-02-18T09:27:29.510Z,11.57
2023-02-18T09:29:56.111Z,11.60
2023-02-18T09:32:33.626Z,11.65
2023-02-18T09:35:01.955Z,11.72
2023-02-18T09:37:28.470Z,11.71
2023-02-18T09:39:54.990Z,11.89
2023-02-18T09:42:27.368Z,11.85
2023-02-18T09:44:57.505Z,11.91
2023-02-18T09:47:31.066Z,11.86
2023-02-18T09:50:03.280Z,11.90
2023-02-18T09:52:33.275Z,12.03
2023-02-18T09:55:19.800Z,12.02
2023-02-18T09:57:49.431Z,12.18
2023-02-18T10:00:22.046Z,12.40
2023-02-18T10:02:55.726Z,12.39
2023-02-18T10:05:24.164Z,12.24
2023-02-18T10:07:56.658Z,12.56
2023-02-18T10:10:32.809Z,12.63
2023-02-18T10:13:00.015Z,12.73
2023-02-18T10:15:29.971Z,12.66
2023-02-18T10:17:57.364Z,12.73
2023-02-18T10:20:27.544Z,12.79
2023-02-18T10:22:58.018Z,12.63
2023-02-18T10:25:25.639Z,12.60
2023-02-18T10:27:53.448Z,12.78
2023-02-18T10:30:27.456Z,12.79
2023-02-18T10:33:00.129Z,13.15
2023-02-18T10:35:33.523Z,13.23
2023-02-18T10:38:11.903Z,13.22
2023-02-18T10:40:49.926Z,12.93
2023-02-18T10:43:24.073Z,13.15
2023-02-18T10:45:58.318Z,13.10
2023-02-18T10:48:42.221Z,13.21
2023-02-18T10:51:16.986Z,13.19
2023-02-18T10:53:46.414Z,13.27
2023-02-18T10:56:33.248Z,13.33
2023-02-18T10:59:05.748Z,13.30
2023-02-18T11:01:32.303Z,13.15
2023-02-18T11:04:07.688Z,13.11
2023-02-18T11:06:39.765Z,13.12
2023-02-18T11:09:13.543Z,13.32
2023-02-18T11:11:40.468Z,13.32
2023-02-18T11:14:08.422Z,13.44
2023-02-18T11:16:39.435Z,13.67
2023-02-18T11:19:28.533Z,13.80
2023-02-18T11:22:08.273Z,13.60
2023-02-18T11:24:38.817Z,13.48
2023-02-18T11:27:09.326Z,13.54
2023-02-18T11:29:35.882Z,13.56
2023-02-18T11:32:02.767Z,13.49
2023-02-18T11:34:32.286Z,13.90
2023-02-18T11:37:09.388Z,14.07
2023-02-18T11:39:36.577Z,14.00
2023-02-18T11:42:05.596Z,14.05
2023-02-18T11:44:36.191Z,14.02
2023-02-18T11:47:05.752Z,14.17
2023-02-18T11:49:34.464Z,14.20
2023-02-18T11:52:15.378Z,14.36
2023-02-18T11:54:42.545Z,14.46
2023-02-18T11:57:13.503Z,14.48
2023-02-18T11:59:42.090Z,14.28
2023-02-18T12:02:25.639Z,14.45
2023-02-18T12:04:55.971Z,14.75
2023-02-18T12:07:26.497Z,14.54
2023-02-18T12:09:56.659Z,14.59
2023-02-18T12:12:27.122Z,14.52
2023-02-18T12:14:55.197Z,14.38
2023-02-18T12:17:50.296Z,14.47
2023-02-18T12:20:37.062Z,14.69
2023-02-18T12:23:13.054Z,14.81
2023-02-18T12:25:49.546Z,14.55
2023-02-18T12:28:29.480Z,14.60
2023-02-18T12:31:15.376Z,14.39
2023-02-18T12:33:55.753Z,14.43
2023-02-18T12:36:37.411Z,14.79
2023-02-18T12:39:16.674Z,14.57
2023-02-18T12:41:58.062Z,14.40
2023-02-18T12:44:35.219Z,14.69
2023-02-18T12:47:38.093Z,14.64
2023-02-18T12:50:33.028Z,14.40
2023-02-18T12:53:21.945Z,14.42
2023-02-18T12:56:04.888Z,14.31
2023-02-18T12:58:46.597Z,14.30
2023-02-18T13:01:36.684Z,14.49
2023-02-18T13:04:47.885Z,14.37
2023-02-18T13:07:47.329Z,14.65
2023-02-18T13:10:42.182Z,14.35
2023-02-18T13:13:11.522Z,14.30
2023-02-18T13:15:42.528Z,14.24
2023-02-18T13:18:15.114Z,13.95
2023-02-18T13:20:45.069Z,14.10
2023-02-18T13:23:18.508Z,14.14
2023-02-18T13:25:47.829Z,14.13
2023-02-18T13:28:20.604Z,13.95
2023-02-18T13:30:52.380Z,13.79
2023-02-18T13:33:27.118Z,13.88
2023-02-18T13:36:00.262Z,13.79
2023-02-18T13:38:52.729Z,13.81
2023-02-18T13:41:20.261Z,13.97
2023-02-18T13:43:47.970Z,13.88
2023-02-18T13:46:18.162Z,13.72
2023-02-18T13:48:48.009Z,13.79
2023-02-18T13:51:16.879Z,13.70
2023-02-18T13:53:49.294Z,13.76
2023-02-18T13:56:22.510Z,13.69
2023-02-18T13:58:51.510Z,13.55
2023-02-18T14:01:37.736Z,13.59
2023-02-18T14:04:51.012Z,13.64
2023-02-18T14:07:38.806Z,13.53
2023-02-18T14:10:23.782Z,13.81
2023-02-18T14:13:17.838Z,14.02
2023-02-18T14:15:55.848Z,14.03
2023-02-18T14:18:57.947Z,13.75
2023-02-18T14:21:39.720Z,13.54
2023-02-18T14:24:09.123Z,13.54
2023-02-18T14:26:39.601Z,13.48
2023-02-18T14:29:11.233Z,13.45
2023-02-18T14:31:46.005Z,13.43
2023-02-18T14:34:37.647Z,13.39
2023-02-18T14:37:18.689Z,13.37
2023-02-18T14:39:55.909Z,13.42
2023-02-18T14:42:38.093Z,13.39
2023-02-18T14:45:15.580Z,13.26
2023-02-18T14:48:07.683Z,13.12
2023-02-18T14:50:36.750Z,13.13
2023-02-18T14:53:06.042Z,13.13
2023-02-18T14:55:35.301Z,13.20
2023-02-18T14:58:04.568Z,13.07
2023-02-18T15:00:35.074Z,13.10
2023-02-18T15:03:02.169Z,13.05
2023-02-18T15:05:30.639Z,12.94
2023-02-18T15:07:59.954Z,13.05
2023-02-18T15:10:37.726Z,13.02
2023-02-18T15:13:07.954Z,13.01
2023-02-18T15:15:35.288Z,13.10
2023-02-18T15:18:03.594Z,13.09
2023-02-18T15:20:33.916Z,13.10
2023-02-18T15:23:01.560Z,13.12
2023-02-18T15:25:28.854Z,13.09
2023-02-18T15:27:55.576Z,13.05
2023-02-18T15:30:28.252Z,12.95
2023-02-18T15:32:56.482Z,12.97
2023-02-18T15:35:28.499Z,12.95
2023-02-18T15:37:56.792Z,12.93
2023-02-18T15:40:28.710Z,12.96
2023-02-18T15:42:58.583Z,12.93
2023-02-18T15:45:30.511Z,12.86
2023-02-18T15:47:59.009Z,12.85
2023-02-18T15:50:29.063Z,12.77
2023-02-18T15:52:59.088Z,12.72
2023-02-18T15:55:31.106Z,12.70
2023-02-18T15:58:00.747Z,12.70
2023-02-18T16:00:30.267Z,12.66
2023-02-18T16:03:03.450Z,12.60
2023-02-18T16:05:30.098Z,12.57
2023-02-18T16:08:01.455Z,12.54
2023-02-18T16:10:46.675Z,12.56
2023-02-18T16:13:15.500Z,12.43
2023-02-18T16:15:44.208Z,12.48
2023-02-18T16:18:23.096Z,12.44
2023-02-18T16:20:55.583Z,12.40
2023-02-18T16:23:29.713Z,12.35
2023-02-18T16:26:08.561Z,12.35
2023-02-18T16:28:35.241Z,12.27
2023-02-18T16:31:02.176Z,12.23
2023-02-18T16:33:28.778Z,12.22
2023-02-18T16:35:56.970Z,12.14
2023-02-18T16:38:25.046Z,12.16
2023-02-18T16:40:53.208Z,12.13
2023-02-18T16:43:21.888Z,12.09
2023-02-18T16:45:50.561Z,12.08
2023-02-18T16:48:20.603Z,12.06
2023-02-18T16:50:49.285Z,11.99
2023-02-18T16:53:15.714Z,11.98
2023-02-18T16:55:42.580Z,11.98
2023-02-18T16:58:09.080Z,12.05
2023-02-18T17:00:36.608Z,12.04
2023-02-18T17:03:04.826Z,12.02
2023-02-18T17:05:39.998Z,11.93
2023-02-18T17:08:17.887Z,11.98
2023-02-18T17:10:45.484Z,11.98
2023-02-18T17:13:15.037Z,11.91
2023-02-18T17:15:43.206Z,11.92
2023-02-18T17:18:09.676Z,11.78
2023-02-18T17:20:36.189Z,11.84
2023-02-18T17:23:02.693Z,11.87
2023-02-18T17:25:31.874Z,11.84
2023-02-18T17:27:58.350Z,11.83
2023-02-18T17:30:25.305Z,11.99
2023-02-18T17:32:52.696Z,12.06
2023-02-18T17:35:22.441Z,12.14
2023-02-18T17:37:49.595Z,11.84
2023-02-18T17:40:17.276Z,11.79
2023-02-18T17:42:44.459Z,11.81
2023-02-18T17:45:20.161Z,11.77
2023-02-18T17:47:47.408Z,11.74
2023-02-18T17:50:15.330Z,11.79
2023-02-18T17:52:45.766Z,11.74
2023-02-18T17:55:24.048Z,11.75
2023-02-18T17:57:52.491Z,11.74
2023-02-18T18:00:23.173Z,11.69
2023-02-18T18:02:50.874Z,11.70
2023-02-18T18:05:22.424Z,11.66
2023-02-18T18:07:49.945Z,11.69
2023-02-18T18:10:21.826Z,11.62
2023-02-18T18:12:49.417Z,11.72
2023-02-18T18:15:23.224Z,11.67
2023-02-18T18:17:50.771Z,11.58
2023-02-18T18:20:22.586Z,11.61
2023-02-18T18:22:49.911Z,11.62
2023-02-18T18:25:22.767Z,11.57
2023-02-18T18:27:53.127Z,11.59
2023-02-18T18:30:21.637Z,11.67
2023-02-18T18:32:48.239Z,11.65
2023-02-18T18:35:21.302Z,11.55
2023-02-18T18:37:47.986Z,11.62
2023-02-18T18:40:14.716Z,11.58
2023-02-18T18:42:41.150Z,11.57
2023-02-18T18:45:16.466Z,11.51
2023-02-18T18:47:43.054Z,11.54
2023-02-18T18:50:09.607Z,11.57
2023-02-18T18:52:36.810Z,11.57
2023-02-18T18:55:03.802Z,11.57
2023-02-18T18:57:30.295Z,11.52
2023-02-18T18:59:56.731Z,11.56
2023-02-18T19:02:23.249Z,11.47
2023-02-18T19:04:49.677Z,11.49
2023-02-18T19:07:16.038Z,11.46
2023-02-18T19:09:43.328Z,11.47
2023-02-18T19:12:10.360Z,11.49
2023-02-18T19:14:36.830Z,11.50
2023-02-18T19:17:04.169Z,11.45
2023-02-18T19:19:33.728Z,11.49
2023-02-18T19:22:00.181Z,11.48
2023-02-18T19:24:26.690Z,11.45
2023-02-18T19:26:53.886Z,11.46
2023-02-18T19:29:22.608Z,11.41
2023-02-18T19:31:49.494Z,11.42
2023-02-18T19:34:16.041Z,11.39
2023-02-18T19:36:44.324Z,11.32
2023-02-18T19:39:10.897Z,11.33
2023-02-18T19:41:37.390Z,11.35
2023-02-18T19:44:05.009Z,11.26
2023-02-18T19:46:31.606Z,11.33
2023-02-18T19:48:58.314Z,11.29
2023-02-18T19:51:25.448Z,11.24
2023-02-18T19:53:52.238Z,11.27
2023-02-18T19:56:18.791Z,11.26
2023-02-18T19:58:56.046Z,11.18
2023-02-18T20:01:23.194Z,11.20
2023-02-18T20:03:49.800Z,11.13
2023-02-18T20:06:17.540Z,11.16
2023-02-18T20:08:44.313Z,11.17
2023-02-18T20:11:11.192Z,11.16
2023-02-18T20:13:37.825Z,11.18
2023-02-18T20:16:06.803Z,11.17
2023-02-18T20:18:35.684Z,11.15
2023-02-18T20:21:02.315Z,11.13
2023-02-18T20:23:31.475Z,11.14
2023-02-18T20:26:00.761Z,11.15
2023-02-18T20:28:27.548Z,10.98
2023-02-18T20:31:05.346Z,11.19
2023-02-18T20:33:31.913Z,11.11
2023-02-18T20:35:59.038Z,11.09
2023-02-18T20:38:29.130Z,11.12
2023-02-18T20:40:55.810Z,11.12
2023-02-18T20:43:22.539Z,11.05
2023-02-18T20:45:51.284Z,11.03
2023-02-18T20:48:17.702Z,10.97
2023-02-18T20:50:46.029Z,11.02
2023-02-18T20:53:13.319Z,10.97
2023-02-18T20:55:46.095Z,10.93
2023-02-18T20:58:12.538Z,10.90
2023-02-18T21:00:38.973Z,10.99
2023-02-18T21:03:05.557Z,10.93
2023-02-18T21:05:32.010Z,10.94
2023-02-18T21:07:58.694Z,10.94
2023-02-18T21:10:26.113Z,11.01
2023-02-18T21:12:52.576Z,10.98
2023-02-18T21:15:19.075Z,11.00
2023-02-18T21:17:45.542Z,11.00
2023-02-18T21:20:11.935Z,11.02
2023-02-18T21:22:38.329Z,11.02
2023-02-18T21:25:05.737Z,11.02
2023-02-18T21:27:32.952Z,10.91
2023-02-18T21:30:00.288Z,10.91
2023-02-18T21:32:26.955Z,10.91
2023-02-18T21:34:54.028Z,10.89
2023-02-18T21:37:20.626Z,10.91
2023-02-18T21:39:47.199Z,10.88
2023-02-18T21:42:15.834Z,10.73
2023-02-18T21:44:43.186Z,10.88
2023-02-18T21:47:10.688Z,10.85
2023-02-18T21:49:37.305Z,10.85
2023-02-18T21:52:07.800Z,10.80
2023-02-18T21:54:38.484Z,10.66
2023-02-18T21:57:06.411Z,10.67
2023-02-18T21:59:34.451Z,10.64
2023-02-18T22:02:03.273Z,10.77
2023-02-18T22:04:32.080Z,10.77
2023-02-18T22:06:59.253Z,10.82
2023-02-18T22:09:26.541Z,10.84
2023-02-18T22:11:53.475Z,10.79
2023-02-18T22:14:20.300Z,10.80
2023-02-18T22:16:46.791Z,10.77
2023-02-18T22:19:14.592Z,10.81
2023-02-18T22:21:41.876Z,10.78
2023-02-18T22:24:10.240Z,10.83
2023-02-18T22:26:36.686Z,10.84
2023-02-18T22:29:04.119Z,10.90
2023-02-18T22:31:42.057Z,10.85
2023-02-18T22:34:10.099Z,10.83
2023-02-18T22:36:37.328Z,10.79
2023-02-18T22:39:04.252Z,10.82
2023-02-18T22:41:32.902Z,10.77
2023-02-18T22:44:01.468Z,10.76
2023-02-18T22:46:29.809Z,10.80
2023-02-18T22:48:57.778Z,10.79
2023-02-18T22:51:26.513Z,10.79
2023-02-18T22:53:55.845Z,10.79
2023-02-18T22:56:25.959Z,10.79
2023-02-18T22:58:57.309Z,10.78
2023-02-18T23:01:28.613Z,10.80
2023-02-18T23:03:56.970Z,10.78
2023-02-18T23:06:23.832Z,10.76
2023-02-18T23:08:50.851Z,10.70
2023-02-18T23:11:19.705Z,10.70
2023-02-18T23:14:06.929Z,10.67
2023-02-18T23:16:54.118Z,10.62
2023-02-18T23:19:21.087Z,10.64
2023-02-18T23:21:47.890Z,10.62
2023-02-18T23:24:14.551Z,10.66
2023-02-18T23:26:41.827Z,10.62
2023-02-18T23:29:08.388Z,10.59
2023-02-18T23:31:36.793Z,10.58
2023-02-18T23:34:05.234Z,10.60
2023-02-18T23:36:33.674Z,10.57
2023-02-18T23:39:01.948Z,10.55
2023-02-18T23:41:29.267Z,10.60
2023-02-18T23:43:56.897Z,10.53
2023-02-18T23:46:25.391Z,10.57
2023-02-18T23:48:51.979Z,10.64
2023-02-18T23:51:20.645Z,10.76
2023-02-18T23:53:47.115Z,10.62
2023-02-18T23:56:15.562Z,10.54
2023-02-18T23:58:44.693Z,10.63
